sensor_id;sensor_type;location;lat;lon;timestamp;P1;durP1;ratioP1;P2;durP2;ratioP2
75437;SDS011;64015;49.392;15.582;2023-12-20T00:00:21;3.05;;;1.38;;
75437;SDS011;64015;49.392;15.582;2023-12-20T00:03:07;3.80;;;1.48;;
75437;SDS011;64015;49.392;15.582;2023-12-20T00:05:33;3.67;;;1.55;;
75437;SDS011;64015;49.392;15.582;2023-12-20T00:08:00;5.90;;;1.80;;
75437;SDS011;64015;49.392;15.582;2023-12-20T00:10:25;4.15;;;1.48;;
75437;SDS011;64015;49.392;15.582;2023-12-20T00:12:51;3.72;;;1.40;;
75437;SDS011;64015;49.392;15.582;2023-12-20T00:15:17;4.22;;;1.92;;
75437;SDS011;64015;49.392;15.582;2023-12-20T00:17:43;3.28;;;1.42;;
75437;SDS011;64015;49.392;15.582;2023-12-20T00:20:09;3.97;;;1.40;;
75437;SDS011;64015;49.392;15.582;2023-12-20T00:22:35;4.40;;;1.55;;
75437;SDS011;64015;49.392;15.582;2023-12-20T00:25:01;3.63;;;1.40;;
75437;SDS011;64015;49.392;15.582;2023-12-20T00:27:27;3.42;;;1.30;;
75437;SDS011;64015;49.392;15.582;2023-12-20T00:29:54;4.20;;;1.63;;
75437;SDS011;64015;49.392;15.582;2023-12-20T00:32:19;2.45;;;0.90;;
75437;SDS011;64015;49.392;15.582;2023-12-20T00:34:45;3.20;;;1.30;;
75437;SDS011;64015;49.392;15.582;2023-12-20T00:37:11;2.78;;;1.30;;
75437;SDS011;64015;49.392;15.582;2023-12-20T00:39:37;3.45;;;1.35;;
75437;SDS011;64015;49.392;15.582;2023-12-20T00:42:03;3.55;;;1.55;;
75437;SDS011;64015;49.392;15.582;2023-12-20T00:44:29;6.55;;;1.45;;
75437;SDS011;64015;49.392;15.582;2023-12-20T00:46:55;3.85;;;1.50;;
75437;SDS011;64015;49.392;15.582;2023-12-20T00:49:21;2.80;;;1.30;;
75437;SDS011;64015;49.392;15.582;2023-12-20T00:51:46;3.60;;;1.42;;
75437;SDS011;64015;49.392;15.582;2023-12-20T00:54:13;3.72;;;1.63;;
75437;SDS011;64015;49.392;15.582;2023-12-20T00:56:39;3.25;;;1.48;;
75437;SDS011;64015;49.392;15.582;2023-12-20T00:59:05;4.60;;;1.98;;
75437;SDS011;64015;49.392;15.582;2023-12-20T01:01:30;3.53;;;1.17;;
75437;SDS011;64015;49.392;15.582;2023-12-20T01:03:58;4.82;;;1.70;;
75437;SDS011;64015;49.392;15.582;2023-12-20T01:06:24;4.97;;;1.40;;
75437;SDS011;64015;49.392;15.582;2023-12-20T01:08:50;3.60;;;1.33;;
75437;SDS011;64015;49.392;15.582;2023-12-20T01:11:16;3.33;;;1.50;;
75437;SDS011;64015;49.392;15.582;2023-12-20T01:13:42;3.85;;;1.58;;
75437;SDS011;64015;49.392;15.582;2023-12-20T01:16:09;2.95;;;1.30;;
75437;SDS011;64015;49.392;15.582;2023-12-20T01:18:36;4.07;;;1.50;;
75437;SDS011;64015;49.392;15.582;2023-12-20T01:21:02;4.60;;;1.25;;
75437;SDS011;64015;49.392;15.582;2023-12-20T01:23:29;3.15;;;1.35;;
75437;SDS011;64015;49.392;15.582;2023-12-20T01:25:54;3.45;;;1.35;;
75437;SDS011;64015;49.392;15.582;2023-12-20T01:28:20;2.42;;;1.17;;
75437;SDS011;64015;49.392;15.582;2023-12-20T01:30:46;3.30;;;1.60;;
75437;SDS011;64015;49.392;15.582;2023-12-20T01:33:12;2.05;;;1.10;;
75437;SDS011;64015;49.392;15.582;2023-12-20T01:35:38;2.63;;;1.20;;
75437;SDS011;64015;49.392;15.582;2023-12-20T01:38:04;3.10;;;1.45;;
75437;SDS011;64015;49.392;15.582;2023-12-20T01:40:29;2.65;;;1.60;;
75437;SDS011;64015;49.392;15.582;2023-12-20T01:42:59;3.55;;;1.40;;
75437;SDS011;64015;49.392;15.582;2023-12-20T01:45:26;2.88;;;1.50;;
75437;SDS011;64015;49.392;15.582;2023-12-20T01:47:52;4.05;;;1.40;;
75437;SDS011;64015;49.392;15.582;2023-12-20T01:52:46;3.88;;;1.58;;
75437;SDS011;64015;49.392;15.582;2023-12-20T01:55:11;3.83;;;1.27;;
75437;SDS011;64015;49.392;15.582;2023-12-20T01:57:40;5.78;;;1.35;;
75437;SDS011;64015;49.392;15.582;2023-12-20T02:00:08;2.72;;;1.10;;
75437;SDS011;64015;49.392;15.582;2023-12-20T02:02:36;3.28;;;1.45;;
75437;SDS011;64015;49.392;15.582;2023-12-20T02:05:07;2.63;;;1.13;;
75437;SDS011;64015;49.392;15.582;2023-12-20T02:07:34;3.33;;;1.80;;
75437;SDS011;64015;49.392;15.582;2023-12-20T02:10:00;3.05;;;1.35;;
75437;SDS011;64015;49.392;15.582;2023-12-20T02:12:27;3.05;;;1.42;;
75437;SDS011;64015;49.392;15.582;2023-12-20T02:25:25;3.90;;;1.48;;
75437;SDS011;64015;49.392;15.582;2023-12-20T02:28:11;4.38;;;1.58;;
75437;SDS011;64015;49.392;15.582;2023-12-20T02:30:37;5.32;;;1.92;;
75437;SDS011;64015;49.392;15.582;2023-12-20T02:35:47;3.35;;;1.30;;
75437;SDS011;64015;49.392;15.582;2023-12-20T02:38:13;3.97;;;2.03;;
75437;SDS011;64015;49.392;15.582;2023-12-20T02:40:39;4.00;;;1.98;;
75437;SDS011;64015;49.392;15.582;2023-12-20T02:43:04;3.60;;;2.15;;
75437;SDS011;64015;49.392;15.582;2023-12-20T02:45:30;3.47;;;1.75;;
75437;SDS011;64015;49.392;15.582;2023-12-20T02:47:56;4.35;;;2.28;;
75437;SDS011;64015;49.392;15.582;2023-12-20T02:50:22;4.30;;;2.03;;
75437;SDS011;64015;49.392;15.582;2023-12-20T02:52:48;4.18;;;2.08;;
75437;SDS011;64015;49.392;15.582;2023-12-20T02:55:14;3.90;;;2.22;;
75437;SDS011;64015;49.392;15.582;2023-12-20T02:57:39;3.97;;;2.38;;
75437;SDS011;64015;49.392;15.582;2023-12-20T03:00:09;5.60;;;2.33;;
75437;SDS011;64015;49.392;15.582;2023-12-20T03:02:36;3.95;;;2.22;;
75437;SDS011;64015;49.392;15.582;2023-12-20T03:05:02;4.15;;;2.15;;
75437;SDS011;64015;49.392;15.582;2023-12-20T03:07:28;6.15;;;2.65;;
75437;SDS011;64015;49.392;15.582;2023-12-20T03:09:54;4.90;;;2.45;;
75437;SDS011;64015;49.392;15.582;2023-12-20T03:12:20;4.85;;;3.20;;
75437;SDS011;64015;49.392;15.582;2023-12-20T03:14:45;4.25;;;2.25;;
75437;SDS011;64015;49.392;15.582;2023-12-20T03:17:13;5.07;;;2.58;;
75437;SDS011;64015;49.392;15.582;2023-12-20T03:19:38;5.25;;;2.58;;
75437;SDS011;64015;49.392;15.582;2023-12-20T03:22:04;7.15;;;2.65;;
75437;SDS011;64015;49.392;15.582;2023-12-20T03:24:30;5.13;;;2.72;;
75437;SDS011;64015;49.392;15.582;2023-12-20T03:26:56;3.80;;;2.50;;
75437;SDS011;64015;49.392;15.582;2023-12-20T03:29:25;6.28;;;2.85;;
75437;SDS011;64015;49.392;15.582;2023-12-20T03:31:50;4.75;;;2.58;;
75437;SDS011;64015;49.392;15.582;2023-12-20T03:34:16;5.43;;;2.92;;
75437;SDS011;64015;49.392;15.582;2023-12-20T03:36:41;4.18;;;2.80;;
75437;SDS011;64015;49.392;15.582;2023-12-20T03:39:07;5.50;;;2.90;;
75437;SDS011;64015;49.392;15.582;2023-12-20T03:41:35;5.35;;;3.00;;
75437;SDS011;64015;49.392;15.582;2023-12-20T03:44:01;6.80;;;3.28;;
75437;SDS011;64015;49.392;15.582;2023-12-20T03:46:26;7.30;;;3.40;;
75437;SDS011;64015;49.392;15.582;2023-12-20T03:48:52;5.38;;;3.25;;
75437;SDS011;64015;49.392;15.582;2023-12-20T03:51:18;6.03;;;3.25;;
75437;SDS011;64015;49.392;15.582;2023-12-20T04:01:11;4.60;;;2.65;;
75437;SDS011;64015;49.392;15.582;2023-12-20T04:03:38;5.40;;;2.97;;
75437;SDS011;64015;49.392;15.582;2023-12-20T04:06:05;6.32;;;3.47;;
75437;SDS011;64015;49.392;15.582;2023-12-20T04:08:31;5.40;;;2.88;;
75437;SDS011;64015;49.392;15.582;2023-12-20T04:10:57;5.97;;;2.88;;
75437;SDS011;64015;49.392;15.582;2023-12-20T04:13:23;5.93;;;3.00;;
75437;SDS011;64015;49.392;15.582;2023-12-20T04:15:48;5.97;;;3.15;;
75437;SDS011;64015;49.392;15.582;2023-12-20T04:18:16;4.65;;;2.65;;
75437;SDS011;64015;49.392;15.582;2023-12-20T04:20:42;5.90;;;2.92;;
75437;SDS011;64015;49.392;15.582;2023-12-20T04:23:07;4.93;;;2.72;;
75437;SDS011;64015;49.392;15.582;2023-12-20T04:25:33;4.72;;;2.53;;
75437;SDS011;64015;49.392;15.582;2023-12-20T04:27:59;7.28;;;3.20;;
75437;SDS011;64015;49.392;15.582;2023-12-20T04:30:24;6.20;;;3.13;;
75437;SDS011;64015;49.392;15.582;2023-12-20T04:32:50;4.13;;;2.70;;
75437;SDS011;64015;49.392;15.582;2023-12-20T04:35:16;6.45;;;3.10;;
75437;SDS011;64015;49.392;15.582;2023-12-20T04:37:41;5.30;;;2.60;;
75437;SDS011;64015;49.392;15.582;2023-12-20T04:40:07;5.68;;;3.03;;
75437;SDS011;64015;49.392;15.582;2023-12-20T04:42:33;7.95;;;3.15;;
75437;SDS011;64015;49.392;15.582;2023-12-20T04:44:59;5.80;;;2.60;;
75437;SDS011;64015;49.392;15.582;2023-12-20T04:47:25;4.50;;;2.92;;
75437;SDS011;64015;49.392;15.582;2023-12-20T04:49:50;4.53;;;2.50;;
75437;SDS011;64015;49.392;15.582;2023-12-20T04:52:16;5.05;;;2.60;;
75437;SDS011;64015;49.392;15.582;2023-12-20T04:54:42;5.75;;;3.17;;
75437;SDS011;64015;49.392;15.582;2023-12-20T04:57:08;7.45;;;3.13;;
75437;SDS011;64015;49.392;15.582;2023-12-20T04:59:33;6.68;;;2.15;;
75437;SDS011;64015;49.392;15.582;2023-12-20T05:01:59;6.22;;;3.15;;
75437;SDS011;64015;49.392;15.582;2023-12-20T05:04:25;4.97;;;2.63;;
75437;SDS011;64015;49.392;15.582;2023-12-20T05:06:51;4.70;;;2.55;;
75437;SDS011;64015;49.392;15.582;2023-12-20T05:09:17;5.53;;;3.25;;
75437;SDS011;64015;49.392;15.582;2023-12-20T05:11:43;5.90;;;2.92;;
75437;SDS011;64015;49.392;15.582;2023-12-20T05:14:08;5.43;;;3.17;;
75437;SDS011;64015;49.392;15.582;2023-12-20T05:16:34;5.28;;;2.85;;
75437;SDS011;64015;49.392;15.582;2023-12-20T05:19:00;3.55;;;2.00;;
75437;SDS011;64015;49.392;15.582;2023-12-20T05:21:27;4.90;;;2.08;;
75437;SDS011;64015;49.392;15.582;2023-12-20T05:23:53;6.78;;;2.88;;
75437;SDS011;64015;49.392;15.582;2023-12-20T05:26:18;5.90;;;2.97;;
75437;SDS011;64015;49.392;15.582;2023-12-20T05:28:44;5.55;;;2.65;;
75437;SDS011;64015;49.392;15.582;2023-12-20T05:31:10;6.32;;;3.33;;
75437;SDS011;64015;49.392;15.582;2023-12-20T05:33:35;5.72;;;3.30;;
75437;SDS011;64015;49.392;15.582;2023-12-20T05:36:01;6.22;;;3.30;;
75437;SDS011;64015;49.392;15.582;2023-12-20T05:38:27;4.65;;;2.78;;
75437;SDS011;64015;49.392;15.582;2023-12-20T05:40:53;5.72;;;3.10;;
75437;SDS011;64015;49.392;15.582;2023-12-20T05:43:18;6.15;;;2.78;;
75437;SDS011;64015;49.392;15.582;2023-12-20T05:45:55;5.22;;;2.38;;
75437;SDS011;64015;49.392;15.582;2023-12-20T05:48:38;4.47;;;2.53;;
75437;SDS011;64015;49.392;15.582;2023-12-20T05:54:48;4.63;;;2.13;;
75437;SDS011;64015;49.392;15.582;2023-12-20T05:57:13;4.68;;;2.40;;
75437;SDS011;64015;49.392;15.582;2023-12-20T05:59:39;4.40;;;2.30;;
75437;SDS011;64015;49.392;15.582;2023-12-20T06:02:11;4.57;;;3.00;;
75437;SDS011;64015;49.392;15.582;2023-12-20T06:04:37;4.95;;;2.47;;
75437;SDS011;64015;49.392;15.582;2023-12-20T06:07:02;5.45;;;2.13;;
75437;SDS011;64015;49.392;15.582;2023-12-20T06:09:28;4.82;;;2.22;;
75437;SDS011;64015;49.392;15.582;2023-12-20T06:11:54;4.88;;;1.85;;
75437;SDS011;64015;49.392;15.582;2023-12-20T06:14:20;5.50;;;2.63;;
75437;SDS011;64015;49.392;15.582;2023-12-20T06:16:46;4.03;;;1.88;;
75437;SDS011;64015;49.392;15.582;2023-12-20T06:19:14;3.88;;;2.05;;
75437;SDS011;64015;49.392;15.582;2023-12-20T06:21:41;5.45;;;2.47;;
75437;SDS011;64015;49.392;15.582;2023-12-20T06:24:06;3.00;;;1.45;;
75437;SDS011;64015;49.392;15.582;2023-12-20T06:26:35;4.05;;;1.50;;
75437;SDS011;64015;49.392;15.582;2023-12-20T06:29:01;3.22;;;1.85;;
75437;SDS011;64015;49.392;15.582;2023-12-20T06:31:27;4.88;;;2.35;;
75437;SDS011;64015;49.392;15.582;2023-12-20T06:33:53;4.15;;;2.13;;
75437;SDS011;64015;49.392;15.582;2023-12-20T06:36:23;2.97;;;1.17;;
75437;SDS011;64015;49.392;15.582;2023-12-20T06:38:52;3.05;;;1.20;;
75437;SDS011;64015;49.392;15.582;2023-12-20T06:41:21;3.08;;;1.70;;
75437;SDS011;64015;49.392;15.582;2023-12-20T06:43:49;3.35;;;1.40;;
75437;SDS011;64015;49.392;15.582;2023-12-20T06:46:15;2.33;;;1.02;;
75437;SDS011;64015;49.392;15.582;2023-12-20T06:48:42;3.00;;;1.20;;
75437;SDS011;64015;49.392;15.582;2023-12-20T06:51:12;2.03;;;1.10;;
75437;SDS011;64015;49.392;15.582;2023-12-20T06:53:40;3.55;;;1.58;;
75437;SDS011;64015;49.392;15.582;2023-12-20T06:56:05;3.15;;;1.00;;
75437;SDS011;64015;49.392;15.582;2023-12-20T06:58:32;2.10;;;1.20;;
75437;SDS011;64015;49.392;15.582;2023-12-20T07:00:58;2.55;;;0.93;;
75437;SDS011;64015;49.392;15.582;2023-12-20T07:03:24;2.67;;;1.20;;
75437;SDS011;64015;49.392;15.582;2023-12-20T07:05:50;2.53;;;1.05;;
75437;SDS011;64015;49.392;15.582;2023-12-20T07:08:15;2.03;;;1.08;;
75437;SDS011;64015;49.392;15.582;2023-12-20T07:10:41;2.22;;;1.30;;
75437;SDS011;64015;49.392;15.582;2023-12-20T07:13:07;2.35;;;1.00;;
75437;SDS011;64015;49.392;15.582;2023-12-20T07:15:33;2.00;;;0.93;;
75437;SDS011;64015;49.392;15.582;2023-12-20T07:17:59;4.43;;;1.00;;
75437;SDS011;64015;49.392;15.582;2023-12-20T07:20:26;2.40;;;1.02;;
75437;SDS011;64015;49.392;15.582;2023-12-20T07:22:51;2.30;;;1.20;;
75437;SDS011;64015;49.392;15.582;2023-12-20T07:25:17;1.90;;;1.00;;
75437;SDS011;64015;49.392;15.582;2023-12-20T07:27:43;2.00;;;0.90;;
75437;SDS011;64015;49.392;15.582;2023-12-20T07:30:10;2.45;;;1.13;;
75437;SDS011;64015;49.392;15.582;2023-12-20T07:32:35;2.50;;;1.38;;
75437;SDS011;64015;49.392;15.582;2023-12-20T07:35:01;2.67;;;1.35;;
75437;SDS011;64015;49.392;15.582;2023-12-20T07:37:28;2.05;;;1.10;;
75437;SDS011;64015;49.392;15.582;2023-12-20T07:39:54;2.22;;;1.05;;
75437;SDS011;64015;49.392;15.582;2023-12-20T07:42:19;1.63;;;0.93;;
75437;SDS011;64015;49.392;15.582;2023-12-20T07:44:47;2.58;;;1.17;;
75437;SDS011;64015;49.392;15.582;2023-12-20T07:47:13;3.10;;;1.10;;
75437;SDS011;64015;49.392;15.582;2023-12-20T07:49:42;2.50;;;1.10;;
75437;SDS011;64015;49.392;15.582;2023-12-20T07:52:08;1.70;;;0.80;;
75437;SDS011;64015;49.392;15.582;2023-12-20T07:54:34;1.50;;;0.73;;
75437;SDS011;64015;49.392;15.582;2023-12-20T07:57:00;2.10;;;0.95;;
75437;SDS011;64015;49.392;15.582;2023-12-20T07:59:26;2.92;;;1.20;;
75437;SDS011;64015;49.392;15.582;2023-12-20T08:01:51;1.92;;;1.05;;
75437;SDS011;64015;49.392;15.582;2023-12-20T08:04:18;2.53;;;0.80;;
75437;SDS011;64015;49.392;15.582;2023-12-20T08:06:43;2.40;;;1.10;;
75437;SDS011;64015;49.392;15.582;2023-12-20T08:09:09;2.15;;;1.13;;
75437;SDS011;64015;49.392;15.582;2023-12-20T08:11:35;2.70;;;1.45;;
75437;SDS011;64015;49.392;15.582;2023-12-20T08:14:05;3.03;;;1.52;;
75437;SDS011;64015;49.392;15.582;2023-12-20T08:16:30;2.35;;;1.23;;
75437;SDS011;64015;49.392;15.582;2023-12-20T08:18:56;2.17;;;1.33;;
75437;SDS011;64015;49.392;15.582;2023-12-20T08:21:40;3.03;;;1.98;;
75437;SDS011;64015;49.392;15.582;2023-12-20T08:24:21;2.22;;;1.48;;
75437;SDS011;64015;49.392;15.582;2023-12-20T08:26:46;3.13;;;1.40;;
75437;SDS011;64015;49.392;15.582;2023-12-20T08:29:13;2.95;;;1.42;;
75437;SDS011;64015;49.392;15.582;2023-12-20T08:31:39;4.93;;;2.38;;
75437;SDS011;64015;49.392;15.582;2023-12-20T08:34:05;3.35;;;2.00;;
75437;SDS011;64015;49.392;15.582;2023-12-20T08:36:31;3.90;;;2.05;;
75437;SDS011;64015;49.392;15.582;2023-12-20T08:38:56;2.45;;;1.30;;
75437;SDS011;64015;49.392;15.582;2023-12-20T08:41:22;3.95;;;1.90;;
75437;SDS011;64015;49.392;15.582;2023-12-20T08:43:48;3.10;;;1.80;;
75437;SDS011;64015;49.392;15.582;2023-12-20T08:46:14;4.05;;;2.13;;
75437;SDS011;64015;49.392;15.582;2023-12-20T08:48:40;3.60;;;2.08;;
75437;SDS011;64015;49.392;15.582;2023-12-20T08:51:06;3.28;;;2.17;;
75437;SDS011;64015;49.392;15.582;2023-12-20T08:53:33;4.47;;;2.50;;
75437;SDS011;64015;49.392;15.582;2023-12-20T08:55:59;3.72;;;2.30;;
75437;SDS011;64015;49.392;15.582;2023-12-20T08:58:27;3.88;;;2.05;;
75437;SDS011;64015;49.392;15.582;2023-12-20T09:00:53;3.42;;;1.65;;
75437;SDS011;64015;49.392;15.582;2023-12-20T09:03:22;2.85;;;1.80;;
75437;SDS011;64015;49.392;15.582;2023-12-20T09:05:48;4.15;;;1.95;;
75437;SDS011;64015;49.392;15.582;2023-12-20T09:08:14;3.13;;;1.73;;
75437;SDS011;64015;49.392;15.582;2023-12-20T09:10:40;3.08;;;1.70;;
75437;SDS011;64015;49.392;15.582;2023-12-20T09:13:14;3.80;;;1.83;;
75437;SDS011;64015;49.392;15.582;2023-12-20T09:15:49;2.72;;;1.50;;
75437;SDS011;64015;49.392;15.582;2023-12-20T09:18:21;2.10;;;1.40;;
75437;SDS011;64015;49.392;15.582;2023-12-20T09:20:49;4.82;;;1.50;;
75437;SDS011;64015;49.392;15.582;2023-12-20T09:23:15;3.35;;;1.67;;
75437;SDS011;64015;49.392;15.582;2023-12-20T09:25:42;2.47;;;1.25;;
75437;SDS011;64015;49.392;15.582;2023-12-20T09:28:08;3.47;;;1.50;;
75437;SDS011;64015;49.392;15.582;2023-12-20T09:30:34;3.03;;;1.40;;
75437;SDS011;64015;49.392;15.582;2023-12-20T09:33:03;2.55;;;1.48;;
75437;SDS011;64015;49.392;15.582;2023-12-20T09:35:28;2.75;;;1.35;;
75437;SDS011;64015;49.392;15.582;2023-12-20T09:37:54;2.70;;;1.42;;
75437;SDS011;64015;49.392;15.582;2023-12-20T09:40:20;4.57;;;1.60;;
75437;SDS011;64015;49.392;15.582;2023-12-20T09:42:48;2.17;;;1.00;;
75437;SDS011;64015;49.392;15.582;2023-12-20T09:45:21;2.75;;;1.52;;
75437;SDS011;64015;49.392;15.582;2023-12-20T09:47:49;2.50;;;1.45;;
75437;SDS011;64015;49.392;15.582;2023-12-20T09:50:17;2.90;;;1.67;;
75437;SDS011;64015;49.392;15.582;2023-12-20T09:52:43;2.63;;;1.25;;
75437;SDS011;64015;49.392;15.582;2023-12-20T09:58:09;2.80;;;1.52;;
75437;SDS011;64015;49.392;15.582;2023-12-20T10:00:35;2.47;;;1.38;;
75437;SDS011;64015;49.392;15.582;2023-12-20T10:03:01;2.08;;;1.25;;
75437;SDS011;64015;49.392;15.582;2023-12-20T10:05:30;2.05;;;0.93;;
75437;SDS011;64015;49.392;15.582;2023-12-20T10:07:58;3.08;;;1.10;;
75437;SDS011;64015;49.392;15.582;2023-12-20T10:10:39;2.30;;;1.20;;
75437;SDS011;64015;49.392;15.582;2023-12-20T10:13:05;1.80;;;0.95;;
75437;SDS011;64015;49.392;15.582;2023-12-20T10:15:46;3.53;;;1.52;;
75437;SDS011;64015;49.392;15.582;2023-12-20T10:18:12;1.73;;;1.08;;
75437;SDS011;64015;49.392;15.582;2023-12-20T10:20:39;2.65;;;1.15;;
75437;SDS011;64015;49.392;15.582;2023-12-20T10:23:06;1.70;;;0.88;;
75437;SDS011;64015;49.392;15.582;2023-12-20T10:25:32;2.00;;;1.23;;
75437;SDS011;64015;49.392;15.582;2023-12-20T10:28:14;2.03;;;1.30;;
75437;SDS011;64015;49.392;15.582;2023-12-20T10:30:45;2.83;;;1.17;;
75437;SDS011;64015;49.392;15.582;2023-12-20T10:33:11;2.50;;;1.30;;
75437;SDS011;64015;49.392;15.582;2023-12-20T10:35:37;2.40;;;1.30;;
75437;SDS011;64015;49.392;15.582;2023-12-20T10:38:04;2.53;;;1.55;;
75437;SDS011;64015;49.392;15.582;2023-12-20T10:40:34;2.40;;;1.25;;
75437;SDS011;64015;49.392;15.582;2023-12-20T10:43:10;2.00;;;1.23;;
75437;SDS011;64015;49.392;15.582;2023-12-20T10:45:36;2.50;;;1.48;;
75437;SDS011;64015;49.392;15.582;2023-12-20T10:48:02;2.45;;;1.15;;
75437;SDS011;64015;49.392;15.582;2023-12-20T10:50:29;3.10;;;1.60;;
75437;SDS011;64015;49.392;15.582;2023-12-20T10:52:56;5.15;;;1.80;;
75437;SDS011;64015;49.392;15.582;2023-12-20T10:55:23;2.67;;;1.92;;
75437;SDS011;64015;49.392;15.582;2023-12-20T10:57:50;3.13;;;1.70;;
75437;SDS011;64015;49.392;15.582;2023-12-20T11:02:43;3.40;;;1.60;;
75437;SDS011;64015;49.392;15.582;2023-12-20T11:07:49;2.50;;;1.83;;
75437;SDS011;64015;49.392;15.582;2023-12-20T11:13:23;4.03;;;2.08;;
75437;SDS011;64015;49.392;15.582;2023-12-20T11:16:12;2.78;;;1.90;;
75437;SDS011;64015;49.392;15.582;2023-12-20T11:18:38;2.70;;;1.80;;
75437;SDS011;64015;49.392;15.582;2023-12-20T11:23:31;2.22;;;1.45;;
75437;SDS011;64015;49.392;15.582;2023-12-20T11:25:59;3.63;;;1.85;;
75437;SDS011;64015;49.392;15.582;2023-12-20T11:28:27;3.03;;;1.65;;
75437;SDS011;64015;49.392;15.582;2023-12-20T11:33:32;2.58;;;1.58;;
75437;SDS011;64015;49.392;15.582;2023-12-20T11:36:01;3.03;;;1.63;;
75437;SDS011;64015;49.392;15.582;2023-12-20T11:38:37;3.70;;;1.70;;
75437;SDS011;64015;49.392;15.582;2023-12-20T11:41:05;2.40;;;1.45;;
75437;SDS011;64015;49.392;15.582;2023-12-20T11:43:38;2.10;;;1.27;;
75437;SDS011;64015;49.392;15.582;2023-12-20T11:46:09;2.78;;;1.50;;
75437;SDS011;64015;49.392;15.582;2023-12-20T11:48:36;2.50;;;1.38;;
75437;SDS011;64015;49.392;15.582;2023-12-20T11:51:13;2.50;;;1.02;;
75437;SDS011;64015;49.392;15.582;2023-12-20T11:53:39;1.75;;;1.00;;
75437;SDS011;64015;49.392;15.582;2023-12-20T11:56:06;2.13;;;1.10;;
75437;SDS011;64015;49.392;15.582;2023-12-20T11:58:33;1.90;;;0.73;;
75437;SDS011;64015;49.392;15.582;2023-12-20T12:01:02;1.73;;;1.08;;
75437;SDS011;64015;49.392;15.582;2023-12-20T12:03:30;2.08;;;0.82;;
75437;SDS011;64015;49.392;15.582;2023-12-20T12:05:55;2.33;;;1.33;;
75437;SDS011;64015;49.392;15.582;2023-12-20T12:08:22;2.33;;;1.10;;
75437;SDS011;64015;49.392;15.582;2023-12-20T12:10:51;2.08;;;0.70;;
75437;SDS011;64015;49.392;15.582;2023-12-20T12:13:33;1.52;;;0.95;;
75437;SDS011;64015;49.392;15.582;2023-12-20T12:16:06;2.70;;;1.63;;
75437;SDS011;64015;49.392;15.582;2023-12-20T12:18:43;2.75;;;1.35;;
75437;SDS011;64015;49.392;15.582;2023-12-20T12:21:08;2.97;;;1.50;;
75437;SDS011;64015;49.392;15.582;2023-12-20T12:23:35;3.05;;;1.67;;
75437;SDS011;64015;49.392;15.582;2023-12-20T12:26:03;3.28;;;2.03;;
75437;SDS011;64015;49.392;15.582;2023-12-20T12:28:30;2.28;;;1.35;;
75437;SDS011;64015;49.392;15.582;2023-12-20T12:34:43;3.05;;;1.98;;
75437;SDS011;64015;49.392;15.582;2023-12-20T12:40:23;3.03;;;1.55;;
75437;SDS011;64015;49.392;15.582;2023-12-20T12:46:33;2.97;;;1.63;;
75437;SDS011;64015;49.392;15.582;2023-12-20T12:48:59;3.05;;;1.70;;
75437;SDS011;64015;49.392;15.582;2023-12-20T12:51:30;2.17;;;1.58;;
75437;SDS011;64015;49.392;15.582;2023-12-20T12:53:57;3.30;;;1.63;;
75437;SDS011;64015;49.392;15.582;2023-12-20T12:56:25;2.33;;;0.98;;
75437;SDS011;64015;49.392;15.582;2023-12-20T12:58:50;1.90;;;1.17;;
75437;SDS011;64015;49.392;15.582;2023-12-20T13:01:34;2.50;;;1.50;;
75437;SDS011;64015;49.392;15.582;2023-12-20T13:04:12;2.90;;;1.65;;
75437;SDS011;64015;49.392;15.582;2023-12-20T13:06:44;2.60;;;1.52;;
75437;SDS011;64015;49.392;15.582;2023-12-20T13:09:10;3.05;;;1.40;;
75437;SDS011;64015;49.392;15.582;2023-12-20T13:11:36;2.88;;;1.58;;
75437;SDS011;64015;49.392;15.582;2023-12-20T13:14:05;2.72;;;1.30;;
75437;SDS011;64015;49.392;15.582;2023-12-20T13:16:31;2.55;;;1.33;;
75437;SDS011;64015;49.392;15.582;2023-12-20T13:18:57;2.35;;;1.25;;
75437;SDS011;64015;49.392;15.582;2023-12-20T13:21:25;2.40;;;1.30;;
75437;SDS011;64015;49.392;15.582;2023-12-20T13:23:51;2.63;;;1.20;;
75437;SDS011;64015;49.392;15.582;2023-12-20T13:26:17;2.42;;;1.35;;
75437;SDS011;64015;49.392;15.582;2023-12-20T13:28:43;5.68;;;2.10;;
75437;SDS011;64015;49.392;15.582;2023-12-20T13:31:08;2.15;;;1.17;;
75437;SDS011;64015;49.392;15.582;2023-12-20T13:33:38;2.42;;;1.23;;
75437;SDS011;64015;49.392;15.582;2023-12-20T13:36:04;3.38;;;1.40;;
75437;SDS011;64015;49.392;15.582;2023-12-20T13:38:31;3.38;;;1.60;;
75437;SDS011;64015;49.392;15.582;2023-12-20T13:40:56;2.38;;;1.45;;
75437;SDS011;64015;49.392;15.582;2023-12-20T13:43:27;4.38;;;1.63;;
75437;SDS011;64015;49.392;15.582;2023-12-20T13:45:52;1.98;;;1.10;;
75437;SDS011;64015;49.392;15.582;2023-12-20T13:48:24;4.35;;;2.00;;
75437;SDS011;64015;49.392;15.582;2023-12-20T13:50:53;2.78;;;1.60;;
75437;SDS011;64015;49.392;15.582;2023-12-20T13:53:34;5.32;;;1.85;;
75437;SDS011;64015;49.392;15.582;2023-12-20T13:56:00;3.58;;;1.50;;
75437;SDS011;64015;49.392;15.582;2023-12-20T13:58:26;2.13;;;1.10;;
75437;SDS011;64015;49.392;15.582;2023-12-20T14:00:51;3.00;;;1.40;;
75437;SDS011;64015;49.392;15.582;2023-12-20T14:03:17;4.18;;;2.05;;
75437;SDS011;64015;49.392;15.582;2023-12-20T14:08:13;4.30;;;1.50;;
75437;SDS011;64015;49.392;15.582;2023-12-20T14:10:38;4.22;;;2.05;;
75437;SDS011;64015;49.392;15.582;2023-12-20T14:13:05;2.03;;;1.17;;
75437;SDS011;64015;49.392;15.582;2023-12-20T14:15:36;4.10;;;1.60;;
75437;SDS011;64015;49.392;15.582;2023-12-20T14:18:06;3.60;;;1.70;;
75437;SDS011;64015;49.392;15.582;2023-12-20T14:20:33;1.65;;;1.08;;
75437;SDS011;64015;49.392;15.582;2023-12-20T14:23:02;2.47;;;1.33;;
75437;SDS011;64015;49.392;15.582;2023-12-20T14:25:28;3.08;;;1.70;;
75437;SDS011;64015;49.392;15.582;2023-12-20T14:27:55;3.00;;;1.65;;
75437;SDS011;64015;49.392;15.582;2023-12-20T14:30:21;5.38;;;1.70;;
75437;SDS011;64015;49.392;15.582;2023-12-20T14:32:47;3.63;;;1.52;;
75437;SDS011;64015;49.392;15.582;2023-12-20T14:35:14;2.78;;;1.40;;
75437;SDS011;64015;49.392;15.582;2023-12-20T14:37:40;2.58;;;1.08;;
75437;SDS011;64015;49.392;15.582;2023-12-20T14:40:06;5.72;;;1.42;;
75437;SDS011;64015;49.392;15.582;2023-12-20T14:42:36;3.92;;;1.80;;
75437;SDS011;64015;49.392;15.582;2023-12-20T14:45:02;2.65;;;1.17;;
75437;SDS011;64015;49.392;15.582;2023-12-20T14:47:29;2.55;;;1.38;;
75437;SDS011;64015;49.392;15.582;2023-12-20T14:49:54;2.58;;;1.33;;
75437;SDS011;64015;49.392;15.582;2023-12-20T14:52:20;2.22;;;1.20;;
75437;SDS011;64015;49.392;15.582;2023-12-20T14:54:46;3.10;;;1.15;;
75437;SDS011;64015;49.392;15.582;2023-12-20T14:57:12;2.17;;;1.33;;
75437;SDS011;64015;49.392;15.582;2023-12-20T14:59:38;2.15;;;1.10;;
75437;SDS011;64015;49.392;15.582;2023-12-20T15:02:04;2.35;;;1.15;;
75437;SDS011;64015;49.392;15.582;2023-12-20T15:04:45;5.05;;;1.67;;
75437;SDS011;64015;49.392;15.582;2023-12-20T15:07:11;2.80;;;1.30;;
75437;SDS011;64015;49.392;15.582;2023-12-20T15:09:55;3.78;;;1.30;;
75437;SDS011;64015;49.392;15.582;2023-12-20T15:12:21;2.45;;;1.50;;
75437;SDS011;64015;49.392;15.582;2023-12-20T15:14:48;3.65;;;1.73;;
75437;SDS011;64015;49.392;15.582;2023-12-20T15:17:23;5.43;;;2.47;;
75437;SDS011;64015;49.392;15.582;2023-12-20T15:19:48;4.05;;;1.77;;
75437;SDS011;64015;49.392;15.582;2023-12-20T15:22:17;4.05;;;1.45;;
75437;SDS011;64015;49.392;15.582;2023-12-20T15:24:43;3.65;;;1.48;;
75437;SDS011;64015;49.392;15.582;2023-12-20T15:27:11;3.88;;;1.75;;
75437;SDS011;64015;49.392;15.582;2023-12-20T15:29:43;2.25;;;1.00;;